Time;durP1;ratioP1;P1;durP2;ratioP2;P2;SDS_P1;SDS_P2;PMS_P1;PMS_P2;Temp;Humidity;BMP_temperature;BMP_pressure;BME280_temperature;BME280_humidity;BME280_pressure;Samples;Min_cycle;Max_cycle;Signal;HPM_P1;HPM_P2
2024/01/03 00:00:05;;;;;;;11.75;2.92;;;8.30;99.90;;;;;;7373620;19;20034;-65
2024/01/03 00:02:31;;;;;;;7.70;2.15;;;8.40;99.90;;;;;;7367452;19;20035;-65
2024/01/03 00:04:58;;;;;;;7.57;1.90;;;8.30;99.90;;;;;;7371062;19;20030;-65
2024/01/03 00:07:25;;;;;;;9.77;2.22;;;8.30;99.90;;;;;;7370693;19;20022;-66
2024/01/03 00:10:40;;;;;;;11.55;2.53;;;8.30;99.90;;;;;;7367742;19;20023;-65
2024/01/03 00:13:29;;;;;;;10.77;1.80;;;8.30;99.90;;;;;;7370370;19;20014;-69
2024/01/03 00:16:01;;;;;;;7.15;2.25;;;8.20;99.90;;;;;;7371535;19;20019;-70
2024/01/03 00:18:41;;;;;;;12.20;1.75;;;8.20;99.90;;;;;;7371529;19;20378;-70
2024/01/03 00:21:11;;;;;;;8.52;1.95;;;8.20;99.90;;;;;;7378503;19;20019;-70
2024/01/03 00:23:47;;;;;;;15.02;2.42;;;8.10;99.90;;;;;;7373947;19;20509;-71
2024/01/03 00:26:16;;;;;;;4.88;1.70;;;8.10;99.90;;;;;;7377094;19;20035;-70
2024/01/03 00:28:43;;;;;;;6.72;1.70;;;8.10;99.90;;;;;;7376115;19;20482;-70
2024/01/03 00:31:38;;;;;;;8.43;1.85;;;8.10;99.90;;;;;;7376077;19;20020;-70
2024/01/03 00:34:16;;;;;;;9.35;1.92;;;8.00;99.90;;;;;;7375607;19;20398;-70
2024/01/03 00:36:42;;;;;;;8.75;1.58;;;8.10;99.90;;;;;;7378318;19;20659;-71
2024/01/03 00:39:10;;;;;;;9.18;1.75;;;8.10;99.90;;;;;;7377717;19;20023;-70
2024/01/03 00:41:39;;;;;;;6.03;1.80;;;8.10;99.90;;;;;;7376825;19;20952;-70
2024/01/03 00:44:06;;;;;;;7.15;1.65;;;8.10;99.90;;;;;;7377741;19;20027;-70
2024/01/03 00:46:32;;;;;;;7.25;1.98;;;8.00;99.90;;;;;;7374486;19;22113;-70
2024/01/03 00:49:00;;;;;;;9.63;2.40;;;8.00;99.90;;;;;;7377175;19;20867;-65
2024/01/03 00:51:26;;;;;;;10.77;2.40;;;8.00;99.90;;;;;;7377635;19;20037;-65
2024/01/03 00:53:53;;;;;;;8.07;1.90;;;7.90;99.90;;;;;;7372769;19;20036;-66
2024/01/03 00:56:19;;;;;;;9.35;2.25;;;7.90;99.90;;;;;;7376152;19;20025;-66
2024/01/03 00:58:45;;;;;;;10.88;2.40;;;7.90;99.90;;;;;;7372583;19;20033;-65
2024/01/03 01:01:12;;;;;;;11.82;2.22;;;7.90;99.90;;;;;;7376374;19;20081;-65
2024/01/03 01:03:38;;;;;;;10.75;2.15;;;7.90;99.90;;;;;;7374377;19;20026;-65
2024/01/03 01:06:05;;;;;;;8.20;2.17;;;7.90;99.90;;;;;;7375422;19;20026;-65
2024/01/03 01:08:32;;;;;;;14.05;1.88;;;7.90;99.90;;;;;;7374628;19;20564;-65
2024/01/03 01:11:01;;;;;;;13.70;2.40;;;7.80;99.90;;;;;;7376002;19;20061;-66
2024/01/03 01:13:28;;;;;;;10.43;2.60;;;7.80;99.90;;;;;;7375693;19;20033;-65
2024/01/03 01:15:55;;;;;;;13.98;2.60;;;7.80;99.90;;;;;;7370341;19;20018;-65
2024/01/03 01:18:21;;;;;;;11.95;1.95;;;7.80;99.90;;;;;;7375956;19;20082;-66
2024/01/03 01:20:48;;;;;;;10.38;2.05;;;7.80;99.90;;;;;;7376583;19;20022;-65
2024/01/03 01:23:14;;;;;;;12.43;2.40;;;7.80;99.90;;;;;;7375225;19;20015;-66
2024/01/03 01:25:42;;;;;;;5.45;1.45;;;7.70;99.90;;;;;;7375004;19;20101;-66
2024/01/03 01:28:08;;;;;;;10.55;2.08;;;7.70;99.90;;;;;;7374662;19;20072;-65
2024/01/03 01:30:37;;;;;;;9.07;1.63;;;7.70;99.90;;;;;;7366458;19;20363;-65
2024/01/03 01:33:23;;;;;;;13.77;2.15;;;7.70;99.90;;;;;;7376059;19;20053;-72
2024/01/03 01:35:49;;;;;;;9.35;1.65;;;7.60;99.90;;;;;;7373223;19;20026;-72
2024/01/03 01:38:16;;;;;;;12.13;2.33;;;7.70;99.90;;;;;;7373151;19;20022;-72
2024/01/03 01:41:02;;;;;;;9.07;1.85;;;7.70;99.90;;;;;;7374428;19;20019;-73
2024/01/03 01:43:48;;;;;;;9.20;2.30;;;7.80;99.90;;;;;;7372576;19;20039;-66
2024/01/03 01:46:16;;;;;;;10.30;2.15;;;7.80;99.90;;;;;;7374997;19;20621;-67
2024/01/03 01:48:43;;;;;;;11.00;2.33;;;7.80;99.90;;;;;;7375113;19;20486;-66
2024/01/03 01:51:12;;;;;;;9.93;2.10;;;7.90;99.90;;;;;;7377839;19;20021;-66
2024/01/03 01:53:40;;;;;;;12.60;1.90;;;7.80;99.90;;;;;;7377480;19;20086;-66
2024/01/03 01:56:08;;;;;;;9.57;2.22;;;7.90;99.90;;;;;;7378066;19;20015;-66
2024/01/03 01:58:36;;;;;;;11.27;2.20;;;7.80;99.90;;;;;;7373817;19;20058;-67
2024/01/03 02:01:03;;;;;;;7.43;1.63;;;7.90;99.90;;;;;;7374433;19;20805;-66
2024/01/03 02:03:29;;;;;;;8.88;1.95;;;8.00;99.90;;;;;;7373555;19;20031;-67
2024/01/03 02:05:56;;;;;;;11.20;2.22;;;8.10;99.90;;;;;;7371599;19;20022;-66
2024/01/03 02:08:24;;;;;;;12.23;2.10;;;8.00;99.90;;;;;;7370077;19;20015;-72
2024/01/03 02:10:51;;;;;;;11.43;2.42;;;8.00;99.90;;;;;;7373605;19;20010;-73
2024/01/03 02:13:17;;;;;;;7.72;2.08;;;8.00;99.90;;;;;;7373388;19;20522;-66
2024/01/03 02:15:43;;;;;;;7.82;1.55;;;8.00;99.90;;;;;;7370267;19;20014;-66
2024/01/03 02:18:13;;;;;;;7.57;1.30;;;8.00;99.90;;;;;;7372270;19;20023;-66
2024/01/03 02:20:40;;;;;;;5.38;1.15;;;8.00;99.90;;;;;;7373682;19;20113;-73
2024/01/03 02:23:09;;;;;;;6.10;1.23;;;8.00;99.90;;;;;;7372687;19;20022;-73
2024/01/03 02:25:36;;;;;;;9.55;1.50;;;8.00;99.90;;;;;;7372937;19;20041;-73
2024/01/03 02:28:03;;;;;;;6.82;1.52;;;8.10;99.90;;;;;;7370584;19;20022;-73
2024/01/03 02:30:29;;;;;;;10.73;2.40;;;8.20;99.90;;;;;;7371491;19;20025;-73
2024/01/03 02:32:55;;;;;;;8.68;1.60;;;8.10;99.90;;;;;;7369937;19;20117;-73
2024/01/03 02:35:22;;;;;;;5.55;1.85;;;8.20;99.90;;;;;;7373186;19;20035;-73
2024/01/03 02:37:48;;;;;;;9.40;1.83;;;8.20;99.90;;;;;;7371608;19;20069;-73
2024/01/03 02:40:14;;;;;;;5.20;1.98;;;8.20;99.90;;;;;;7371237;19;20386;-73
2024/01/03 02:43:00;;;;;;;7.10;1.13;;;8.30;99.90;;;;;;7370796;19;20017;-73
2024/01/03 02:45:27;;;;;;;6.10;1.60;;;8.40;99.90;;;;;;7370521;19;20098;-73
2024/01/03 02:47:54;;;;;;;6.43;1.25;;;8.30;99.90;;;;;;7373239;19;20485;-73
2024/01/03 02:50:20;;;;;;;6.20;1.25;;;8.40;99.90;;;;;;7370164;19;20015;-73
2024/01/03 02:52:47;;;;;;;6.82;1.10;;;8.40;99.90;;;;;;7374357;19;20035;-66
2024/01/03 02:55:13;;;;;;;5.65;1.02;;;8.30;99.90;;;;;;7373204;19;20019;-66
2024/01/03 02:57:41;;;;;;;4.53;1.20;;;8.30;99.90;;;;;;7369339;19;20025;-66
2024/01/03 03:00:10;;;;;;;5.32;1.00;;;8.30;99.90;;;;;;7371582;19;20026;-67
2024/01/03 03:02:36;;;;;;;3.83;0.70;;;8.20;99.90;;;;;;7372936;19;20018;-73
2024/01/03 03:05:03;;;;;;;3.63;1.20;;;8.20;99.90;;;;;;7369779;19;20734;-72
2024/01/03 03:07:29;;;;;;;4.15;0.70;;;8.30;99.90;;;;;;7372440;19;20018;-66
2024/01/03 03:09:55;;;;;;;7.63;1.10;;;8.20;99.90;;;;;;7373025;19;20023;-67
2024/01/03 03:12:21;;;;;;;4.57;0.70;;;8.20;99.90;;;;;;7373755;19;20159;-67
2024/01/03 03:14:47;;;;;;;1.60;0.70;;;8.20;99.90;;;;;;7366512;19;20502;-66
2024/01/03 03:17:14;;;;;;;3.35;0.98;;;8.20;99.90;;;;;;7371937;19;20029;-66
2024/01/03 03:19:40;;;;;;;3.85;0.70;;;8.30;99.90;;;;;;7370683;19;20017;-66
2024/01/03 03:22:06;;;;;;;1.45;0.70;;;8.20;99.90;;;;;;7372063;19;21155;-66
2024/01/03 03:24:52;;;;;;;2.42;0.80;;;8.20;99.90;;;;;;7367500;19;20023;-71
2024/01/03 03:27:39;;;;;;;4.60;1.10;;;8.30;99.90;;;;;;7371200;19;20665;-72
2024/01/03 03:30:05;;;;;;;2.95;1.00;;;8.30;99.90;;;;;;7369396;19;20030;-72
2024/01/03 03:32:52;;;;;;;3.53;0.73;;;8.20;99.90;;;;;;7369382;19;20026;-71
2024/01/03 03:35:18;;;;;;;4.50;0.98;;;8.20;99.90;;;;;;7366763;19;20685;-72
2024/01/03 03:37:44;;;;;;;3.50;0.65;;;8.30;99.90;;;;;;7369607;19;20029;-71
2024/01/03 03:40:10;;;;;;;2.90;0.70;;;8.30;99.90;;;;;;7372473;19;20023;-71
2024/01/03 03:42:37;;;;;;;2.45;0.68;;;8.20;99.90;;;;;;7369859;19;20106;-71
2024/01/03 03:45:03;;;;;;;4.47;0.80;;;8.20;99.90;;;;;;7369955;19;20043;-70
2024/01/03 03:47:30;;;;;;;4.07;1.10;;;8.30;99.90;;;;;;7369542;19;20027;-71
2024/01/03 03:49:56;;;;;;;8.40;1.92;;;8.30;99.90;;;;;;7371557;19;20027;-65
2024/01/03 03:52:22;;;;;;;13.38;2.47;;;8.30;99.90;;;;;;7370440;19;20657;-66
2024/01/03 03:54:49;;;;;;;21.65;3.90;;;8.40;99.90;;;;;;7378770;19;20389;-66
2024/01/03 03:57:15;;;;;;;19.75;4.50;;;8.40;99.90;;;;;;7377150;19;20022;-70
2024/01/03 03:59:42;;;;;;;19.77;4.78;;;8.50;99.90;;;;;;7375949;19;20869;-70
2024/01/03 04:02:08;;;;;;;22.30;3.72;;;8.50;99.90;;;;;;7377919;19;20025;-71
2024/01/03 04:04:34;;;;;;;21.48;3.95;;;8.50;99.90;;;;;;7377185;19;20378;-70
2024/01/03 04:07:00;;;;;;;25.00;3.83;;;8.60;99.90;;;;;;7374972;19;20029;-71
2024/01/03 04:09:27;;;;;;;19.50;4.05;;;8.60;99.90;;;;;;7376731;19;20014;-71
2024/01/03 04:11:53;;;;;;;21.63;4.80;;;8.50;99.90;;;;;;7377024;19;20490;-65
2024/01/03 04:14:20;;;;;;;24.67;4.40;;;8.50;99.90;;;;;;7379699;19;20010;-66
2024/01/03 04:16:46;;;;;;;20.05;4.47;;;8.60;99.90;;;;;;7374751;19;20014;-66
2024/01/03 04:19:12;;;;;;;25.55;6.22;;;8.60;99.90;;;;;;7378218;19;20903;-71
2024/01/03 04:21:40;;;;;;;21.10;3.85;;;8.60;99.90;;;;;;7377278;19;20401;-71
2024/01/03 04:24:06;;;;;;;27.67;4.72;;;8.60;99.90;;;;;;7379344;19;20022;-65
2024/01/03 04:26:32;;;;;;;25.42;4.13;;;8.50;99.90;;;;;;7377091;19;20022;-66
2024/01/03 04:28:58;;;;;;;19.45;3.70;;;8.60;99.90;;;;;;7378903;19;20018;-66
2024/01/03 04:31:25;;;;;;;23.40;4.05;;;8.70;99.90;;;;;;7378493;19;20019;-66
2024/01/03 04:33:51;;;;;;;24.70;4.45;;;8.60;99.90;;;;;;7378613;19;20025;-66
2024/01/03 04:36:18;;;;;;;20.20;4.00;;;8.60;99.90;;;;;;7374290;19;20847;-66
2024/01/03 04:38:44;;;;;;;21.08;4.22;;;8.60;99.90;;;;;;7372909;19;20032;-66
2024/01/03 04:41:10;;;;;;;25.55;4.72;;;8.60;99.90;;;;;;7378734;19;20007;-66
2024/01/03 04:43:37;;;;;;;27.40;4.38;;;8.70;99.90;;;;;;7377929;19;20014;-66
2024/01/03 04:46:03;;;;;;;27.73;4.90;;;8.60;99.90;;;;;;7374696;19;20512;-72
2024/01/03 04:48:30;;;;;;;26.83;5.30;;;8.60;99.90;;;;;;7375990;19;20072;-73
2024/01/03 04:50:56;;;;;;;32.53;5.40;;;8.70;99.90;;;;;;7372467;19;20029;-72
2024/01/03 04:53:22;;;;;;;27.38;4.35;;;8.70;99.90;;;;;;7376710;19;20644;-72
2024/01/03 04:55:49;;;;;;;23.23;4.38;;;8.70;99.90;;;;;;7373873;19;20089;-66
2024/01/03 04:58:15;;;;;;;24.85;4.40;;;8.70;99.90;;;;;;7375100;19;20078;-66
2024/01/03 05:00:41;;;;;;;27.45;4.82;;;8.70;99.90;;;;;;7373675;19;20018;-66
2024/01/03 05:03:08;;;;;;;24.10;4.38;;;8.80;99.90;;;;;;7374725;19;20018;-66
2024/01/03 05:05:34;;;;;;;26.20;4.85;;;8.70;99.90;;;;;;7373772;19;20033;-66
2024/01/03 05:08:00;;;;;;;21.75;3.85;;;8.80;99.90;;;;;;7375181;19;20507;-66
2024/01/03 05:10:26;;;;;;;25.48;5.32;;;8.80;99.90;;;;;;7372329;19;20022;-66
2024/01/03 05:13:12;;;;;;;20.23;4.20;;;8.80;99.90;;;;;;7375240;19;20511;-66
2024/01/03 05:15:39;;;;;;;22.48;4.53;;;8.80;99.90;;;;;;7372218;19;20107;-66
2024/01/03 05:18:05;;;;;;;22.55;5.15;;;8.80;99.90;;;;;;7368957;19;20039;-67
2024/01/03 05:20:31;;;;;;;28.40;5.00;;;8.80;99.90;;;;;;7366458;19;20014;-66
2024/01/03 05:22:57;;;;;;;34.08;5.15;;;8.80;99.90;;;;;;7373810;19;20022;-66
2024/01/03 05:25:23;;;;;;;21.73;4.40;;;8.90;99.90;;;;;;7377106;19;20034;-66
2024/01/03 05:27:50;;;;;;;32.15;4.75;;;8.80;99.90;;;;;;7372254;19;20019;-67
2024/01/03 05:30:36;;;;;;;27.67;4.45;;;8.80;99.90;;;;;;7374574;19;20019;-73
2024/01/03 05:33:02;;;;;;;22.92;4.40;;;8.80;99.90;;;;;;7374692;19;20010;-66
2024/01/03 05:35:29;;;;;;;20.25;3.88;;;8.80;99.90;;;;;;7376599;19;20022;-66
2024/01/03 05:37:55;;;;;;;24.92;4.88;;;8.80;99.90;;;;;;7373202;19;20673;-74
2024/01/03 05:40:21;;;;;;;24.67;3.97;;;8.80;99.90;;;;;;7376848;19;20014;-66
2024/01/03 05:42:47;;;;;;;27.45;4.50;;;8.90;99.90;;;;;;7374907;19;20018;-65
2024/01/03 05:45:13;;;;;;;19.67;4.07;;;8.80;99.90;;;;;;7373720;19;20050;-72
2024/01/03 05:47:40;;;;;;;29.52;6.10;;;8.90;99.90;;;;;;7369012;19;20967;-73
2024/01/03 05:50:09;;;;;;;23.92;4.70;;;8.90;99.90;;;;;;7376228;19;20061;-73
2024/01/03 05:52:36;;;;;;;30.15;5.88;;;8.90;99.90;;;;;;7372841;19;20010;-73
2024/01/03 05:55:02;;;;;;;27.73;4.85;;;8.90;99.90;;;;;;7377047;19;20765;-73
2024/01/03 05:57:29;;;;;;;23.40;4.25;;;8.80;99.90;;;;;;7373055;19;20572;-66
2024/01/03 06:00:16;;;;;;;21.08;3.88;;;8.80;99.90;;;;;;7370425;19;20019;-67
2024/01/03 06:02:42;;;;;;;21.40;4.68;;;8.80;99.90;;;;;;7373258;19;20033;-65
2024/01/03 06:05:11;;;;;;;25.77;4.72;;;8.90;99.90;;;;;;7375519;19;20022;-66
2024/01/03 06:07:41;;;;;;;22.40;5.07;;;8.90;99.90;;;;;;7369752;19;20011;-66
2024/01/03 06:10:08;;;;;;;22.55;4.25;;;8.90;99.90;;;;;;7374295;19;20043;-67
2024/01/03 06:12:38;;;;;;;19.40;4.10;;;9.00;99.90;;;;;;7372679;19;20015;-66
2024/01/03 06:15:06;;;;;;;20.02;4.40;;;9.10;99.90;;;;;;7371312;19;20014;-74
2024/01/03 06:17:33;;;;;;;26.20;4.07;;;9.20;99.90;;;;;;7373427;19;20019;-74
2024/01/03 06:19:59;;;;;;;20.52;4.38;;;9.30;99.90;;;;;;7371641;19;20022;-74
2024/01/03 06:22:45;;;;;;;14.82;3.20;;;9.60;99.90;;;;;;7373342;19;20022;-74
2024/01/03 06:25:11;;;;;;;22.63;4.97;;;9.60;99.90;;;;;;7374536;19;20541;-74
2024/01/03 06:27:38;;;;;;;25.55;4.50;;;9.60;99.90;;;;;;7373870;19;20018;-74
2024/01/03 06:30:05;;;;;;;20.42;3.88;;;9.60;99.90;;;;;;7375049;19;20047;-67
2024/01/03 06:32:51;;;;;;;20.02;4.57;;;9.60;99.90;;;;;;7373978;19;20040;-67
2024/01/03 06:35:17;;;;;;;26.63;5.05;;;9.60;99.90;;;;;;7375371;19;20470;-74
2024/01/03 06:37:43;;;;;;;31.13;4.38;;;9.40;99.90;;;;;;7370999;19;20023;-67
2024/01/03 06:40:10;;;;;;;21.45;4.00;;;9.30;99.90;;;;;;7377067;19;20050;-66
2024/01/03 06:42:36;;;;;;;25.48;4.75;;;9.20;99.90;;;;;;7374954;19;20010;-73
2024/01/03 06:45:03;;;;;;;24.70;4.30;;;9.10;99.90;;;;;;7376893;19;20501;-74
2024/01/03 06:47:31;;;;;;;22.27;3.53;;;9.10;99.90;;;;;;7374764;19;20018;-67
2024/01/03 06:49:57;;;;;;;27.13;4.63;;;9.10;99.90;;;;;;7375835;19;20018;-66
2024/01/03 06:52:23;;;;;;;22.27;4.53;;;9.00;99.90;;;;;;7376423;19;20109;-66
2024/01/03 06:54:50;;;;;;;26.55;3.75;;;9.00;99.90;;;;;;7374422;19;20551;-66
2024/01/03 06:57:16;;;;;;;26.73;4.10;;;9.00;99.90;;;;;;7375394;19;20010;-66
2024/01/03 06:59:43;;;;;;;19.73;3.83;;;9.10;99.90;;;;;;7372073;19;20098;-66
2024/01/03 07:02:10;;;;;;;21.38;3.85;;;9.10;99.90;;;;;;7376200;19;20048;-66
2024/01/03 07:04:36;;;;;;;24.63;4.32;;;9.00;99.90;;;;;;7373588;19;20021;-66
2024/01/03 07:07:02;;;;;;;14.45;3.35;;;9.10;99.90;;;;;;7374358;19;20029;-66
2024/01/03 07:09:29;;;;;;;18.15;4.18;;;9.00;99.90;;;;;;7373385;19;20011;-66
2024/01/03 07:11:55;;;;;;;18.60;4.07;;;9.10;99.90;;;;;;7374550;19;20010;-66
2024/01/03 07:14:21;;;;;;;23.48;4.22;;;9.10;99.90;;;;;;7374044;19;20125;-66
2024/01/03 07:16:47;;;;;;;26.38;4.50;;;9.10;99.90;;;;;;7373124;19;20014;-66
2024/01/03 07:19:13;;;;;;;25.13;4.05;;;9.20;99.90;;;;;;7374582;19;20505;-66
2024/01/03 07:21:40;;;;;;;23.02;3.97;;;9.20;99.90;;;;;;7373950;19;20695;-67
2024/01/03 07:24:06;;;;;;;27.40;4.22;;;9.20;99.90;;;;;;7374214;19;20038;-74
2024/01/03 07:26:32;;;;;;;22.15;4.15;;;9.20;99.90;;;;;;7377858;19;20018;-66
2024/01/03 07:28:58;;;;;;;19.73;4.30;;;9.20;99.90;;;;;;7378628;19;20042;-65
2024/01/03 07:31:25;;;;;;;22.10;3.90;;;9.20;99.90;;;;;;7381712;19;20021;-65
2024/01/03 07:33:51;;;;;;;22.98;3.67;;;9.20;99.90;;;;;;7380602;19;20022;-65
2024/01/03 07:36:17;;;;;;;21.60;3.65;;;9.30;99.90;;;;;;7380981;19;20123;-65
2024/01/03 07:38:44;;;;;;;24.90;5.07;;;9.30;99.90;;;;;;7374349;19;20022;-65
2024/01/03 07:41:11;;;;;;;19.35;3.80;;;9.20;99.90;;;;;;7379201;19;20010;-65
2024/01/03 07:43:37;;;;;;;20.35;3.67;;;9.30;99.90;;;;;;7380751;19;20018;-65
2024/01/03 07:46:03;;;;;;;25.20;4.45;;;9.20;99.90;;;;;;7379883;19;20018;-73
2024/01/03 07:48:30;;;;;;;25.50;4.03;;;9.10;99.90;;;;;;7379909;19;20015;-73
2024/01/03 07:50:56;;;;;;;22.77;4.07;;;9.10;99.90;;;;;;7377860;19;20183;-73
2024/01/03 07:53:22;;;;;;;19.90;3.53;;;9.10;99.90;;;;;;7380248;19;20014;-72
2024/01/03 07:55:48;;;;;;;20.17;4.10;;;9.10;99.90;;;;;;7379906;19;20018;-65
2024/01/03 07:58:14;;;;;;;20.13;4.50;;;9.00;99.90;;;;;;7378077;19;20091;-73
2024/01/03 08:00:45;;;;;;;16.15;3.25;;;9.00;99.90;;;;;;7377559;19;20085;-73
2024/01/03 08:03:12;;;;;;;17.45;3.33;;;9.20;99.90;;;;;;7377554;19;20026;-73
2024/01/03 08:05:41;;;;;;;16.15;3.13;;;9.20;99.90;;;;;;7376375;19;20014;-73
2024/01/03 08:08:07;;;;;;;9.10;2.42;;;9.30;99.90;;;;;;7379053;19;20042;-65
2024/01/03 08:10:34;;;;;;;14.02;2.85;;;9.30;99.90;;;;;;7377605;19;20019;-65
2024/01/03 08:13:00;;;;;;;14.20;2.92;;;9.40;99.90;;;;;;7379446;19;20570;-72
2024/01/03 08:15:26;;;;;;;17.10;2.85;;;9.30;99.90;;;;;;7375934;19;20014;-73
2024/01/03 08:17:53;;;;;;;21.27;3.33;;;9.30;99.90;;;;;;7373417;19;20022;-72
2024/01/03 08:20:19;;;;;;;21.08;3.60;;;9.30;99.90;;;;;;7378247;19;20052;-65
2024/01/03 08:22:46;;;;;;;22.35;3.25;;;9.20;99.90;;;;;;7379900;19;20026;-65
2024/01/03 08:25:13;;;;;;;18.25;3.70;;;9.20;99.90;;;;;;7378506;19;20093;-65
2024/01/03 08:27:40;;;;;;;23.00;4.13;;;9.20;99.90;;;;;;7376599;19;20048;-66
2024/01/03 08:30:07;;;;;;;17.08;3.10;;;9.10;99.90;;;;;;7376971;19;20574;-65
2024/01/03 08:32:36;;;;;;;23.98;3.60;;;9.10;99.90;;;;;;7377213;19;20022;-66
2024/01/03 08:35:03;;;;;;;14.45;2.80;;;9.10;99.90;;;;;;7375321;19;20667;-65
2024/01/03 08:37:30;;;;;;;15.75;2.45;;;9.10;99.90;;;;;;7373385;19;20027;-65
2024/01/03 08:39:57;;;;;;;10.45;2.65;;;9.10;99.90;;;;;;7378122;19;20015;-65
2024/01/03 08:42:24;;;;;;;14.55;2.38;;;9.00;99.90;;;;;;7375046;19;20037;-73
2024/01/03 08:44:53;;;;;;;18.75;3.35;;;9.10;99.90;;;;;;7376271;19;20015;-73
2024/01/03 08:47:19;;;;;;;13.73;2.55;;;9.10;99.90;;;;;;7376473;19;20147;-72
2024/01/03 08:49:46;;;;;;;9.65;2.30;;;9.10;99.90;;;;;;7375994;19;20469;-73
2024/01/03 08:52:13;;;;;;;14.13;2.90;;;9.10;99.90;;;;;;7377916;19;20018;-74
2024/01/03 08:54:40;;;;;;;10.73;2.10;;;9.10;99.90;;;;;;7378698;19;20020;-74
2024/01/03 08:57:09;;;;;;;9.48;2.17;;;9.20;99.90;;;;;;7375289;19;20014;-75
2024/01/03 08:59:36;;;;;;;11.80;2.65;;;9.20;99.90;;;;;;7377233;19;20018;-74
2024/01/03 09:02:03;;;;;;;13.68;2.88;;;9.20;99.90;;;;;;7376624;19;20035;-74
2024/01/03 09:04:30;;;;;;;14.90;2.97;;;9.40;99.90;;;;;;7377040;19;20011;-74
2024/01/03 09:06:56;;;;;;;14.80;2.22;;;9.50;99.90;;;;;;7377023;19;20086;-74
2024/01/03 09:09:22;;;;;;;16.90;2.60;;;9.50;99.90;;;;;;7377112;19;20014;-74
2024/01/03 09:11:49;;;;;;;15.00;3.50;;;9.50;99.90;;;;;;7375464;19;20482;-74
2024/01/03 09:14:16;;;;;;;18.92;3.17;;;9.60;99.90;;;;;;7376209;19;20015;-67
2024/01/03 09:16:42;;;;;;;22.40;3.47;;;9.60;99.90;;;;;;7375119;19;20717;-67
2024/01/03 09:19:09;;;;;;;16.63;3.92;;;9.50;99.90;;;;;;7376852;19;20547;-66
2024/01/03 09:21:55;;;;;;;17.55;3.05;;;9.60;99.90;;;;;;7375236;19;20045;-67
2024/01/03 09:24:21;;;;;;;21.35;4.28;;;9.50;99.90;;;;;;7376511;19;20018;-67
2024/01/03 09:26:47;;;;;;;22.73;3.97;;;9.60;99.90;;;;;;7372035;19;20018;-68
2024/01/03 09:29:14;;;;;;;19.35;3.80;;;9.60;99.90;;;;;;7377520;19;20018;-66
2024/01/03 09:31:43;;;;;;;21.33;3.65;;;9.60;99.90;;;;;;7376157;19;20007;-66
2024/01/03 09:34:09;;;;;;;14.05;3.10;;;9.60;99.90;;;;;;7378723;19;20015;-67
2024/01/03 09:36:35;;;;;;;17.42;4.50;;;9.70;99.90;;;;;;7374447;19;20014;-74
2024/01/03 09:39:02;;;;;;;18.90;3.83;;;9.70;99.90;;;;;;7371045;19;20026;-74
2024/01/03 09:41:29;;;;;;;20.40;3.53;;;9.70;99.90;;;;;;7378243;19;20014;-75
2024/01/03 09:43:56;;;;;;;15.48;2.92;;;9.70;99.90;;;;;;7373980;19;20022;-74
2024/01/03 09:46:23;;;;;;;17.88;3.45;;;9.70;99.90;;;;;;7374824;19;20031;-74
2024/01/03 09:48:49;;;;;;;20.80;4.22;;;9.80;99.90;;;;;;7370704;19;20019;-74
2024/01/03 09:51:16;;;;;;;17.50;4.35;;;9.90;99.90;;;;;;7376345;19;20007;-66
2024/01/03 09:53:44;;;;;;;13.48;3.20;;;10.10;99.90;;;;;;7376595;19;20366;-66
2024/01/03 09:56:12;;;;;;;18.05;3.67;;;10.40;99.90;;;;;;7375271;19;20052;-74
2024/01/03 09:58:39;;;;;;;18.52;3.45;;;10.60;99.90;;;;;;7369976;19;20010;-74
2024/01/03 10:01:06;;;;;;;13.55;3.13;;;10.80;99.90;;;;;;7372924;19;20044;-74
2024/01/03 10:03:33;;;;;;;19.55;4.45;;;11.00;99.90;;;;;;7374105;19;20018;-74
2024/01/03 10:06:07;;;;;;;16.27;4.30;;;11.10;99.90;;;;;;7374375;19;20086;-66
2024/01/03 10:08:36;;;;;;;19.50;3.50;;;11.30;99.90;;;;;;7373563;19;20609;-66
2024/01/03 10:11:17;;;;;;;18.33;3.47;;;11.30;99.90;;;;;;7375016;19;20386;-66
2024/01/03 10:13:43;;;;;;;17.30;2.77;;;11.10;99.90;;;;;;7373239;19;20517;-67
2024/01/03 10:16:09;;;;;;;14.32;3.85;;;10.90;99.90;;;;;;7378147;19;20373;-67
2024/01/03 10:18:35;;;;;;;14.35;3.03;;;10.80;99.90;;;;;;7371046;19;20014;-66
2024/01/03 10:21:15;;;;;;;16.00;3.15;;;10.80;99.90;;;;;;7372703;19;20023;-66
2024/01/03 10:23:43;;;;;;;19.35;3.25;;;10.70;99.90;;;;;;7372487;19;20021;-75
2024/01/03 10:26:09;;;;;;;13.07;2.92;;;10.70;99.90;;;;;;7378828;19;20871;-75
2024/01/03 10:28:35;;;;;;;16.35;4.10;;;10.70;99.90;;;;;;7374091;19;20025;-74
2024/01/03 10:31:07;;;;;;;15.48;3.30;;;10.70;99.90;;;;;;7375252;19;21180;-74
2024/01/03 10:33:37;;;;;;;16.33;3.00;;;10.80;99.90;;;;;;7376849;19;20054;-75
2024/01/03 10:36:10;;;;;;;20.27;3.30;;;10.50;99.90;;;;;;7373606;19;20090;-75
2024/01/03 10:38:37;;;;;;;19.98;3.58;;;10.40;99.90;;;;;;7374503;19;20018;-74
2024/01/03 10:41:03;;;;;;;21.42;3.42;;;10.20;99.90;;;;;;7374495;19;20026;-74
2024/01/03 10:43:31;;;;;;;15.23;3.40;;;10.10;99.90;;;;;;7375880;19;20014;-75
2024/01/03 10:45:58;;;;;;;21.63;3.33;;;10.10;99.90;;;;;;7374170;19;20035;-75
2024/01/03 10:48:24;;;;;;;17.50;3.13;;;10.10;99.90;;;;;;7373004;19;20330;-74
2024/01/03 10:50:51;;;;;;;16.25;3.72;;;10.20;99.90;;;;;;7371605;19;20062;-66
2024/01/03 10:53:22;;;;;;;18.23;3.78;;;10.20;99.90;;;;;;7374574;19;20018;-66
2024/01/03 10:55:54;;;;;;;18.15;2.63;;;10.20;99.90;;;;;;7372990;19;20006;-66
2024/01/03 10:58:23;;;;;;;15.40;3.17;;;10.20;99.90;;;;;;7372245;19;20015;-66
2024/01/03 11:01:26;;;;;;;16.63;3.25;;;10.20;99.90;;;;;;7369855;19;20042;-66
2024/01/03 11:04:05;;;;;;;17.77;3.30;;;10.30;99.90;;;;;;7370455;19;20519;-66
2024/01/03 11:06:56;;;;;;;16.92;3.70;;;10.30;99.90;;;;;;7373086;19;20014;-74
2024/01/03 11:09:25;;;;;;;15.07;3.90;;;10.40;99.90;;;;;;7373148;19;20025;-75
2024/01/03 11:12:06;;;;;;;18.35;3.70;;;10.30;99.90;;;;;;7373387;19;20354;-75
2024/01/03 11:14:33;;;;;;;18.30;4.20;;;10.30;99.90;;;;;;7372862;19;20034;-75
2024/01/03 11:17:00;;;;;;;19.60;3.92;;;10.20;99.90;;;;;;7371511;19;20022;-75
2024/01/03 11:19:32;;;;;;;22.45;3.97;;;10.20;99.90;;;;;;7373160;19;20580;-75
2024/01/03 11:22:01;;;;;;;16.85;3.17;;;10.20;99.90;;;;;;7370285;19;20040;-75
2024/01/03 11:24:27;;;;;;;22.65;4.97;;;10.10;99.90;;;;;;7374172;19;20006;-75
2024/01/03 11:26:56;;;;;;;20.08;3.88;;;10.10;99.90;;;;;;7372967;19;20015;-75
2024/01/03 11:29:50;;;;;;;21.67;4.20;;;10.10;99.90;;;;;;7370166;19;20014;-75
2024/01/03 11:32:31;;;;;;;26.58;4.97;;;10.00;99.90;;;;;;7373560;19;20236;-66
2024/01/03 11:34:58;;;;;;;21.30;4.85;;;10.00;99.90;;;;;;7370448;19;20057;-66
2024/01/03 11:37:30;;;;;;;31.58;5.75;;;10.00;99.90;;;;;;7372892;19;20034;-67
2024/01/03 11:39:57;;;;;;;;;;;10.00;99.90;;;;;;7371151;19;21221;-66
2024/01/03 11:42:24;;;;;;;29.40;5.00;;;10.00;99.90;;;;;;7373469;19;19915;-66
2024/01/03 11:45:19;;;;;;;30.25;4.75;;;9.90;99.90;;;;;;7371982;19;20797;-66
2024/01/03 11:47:48;;;;;;;25.50;4.93;;;10.00;99.90;;;;;;7372383;19;20018;-66
2024/01/03 11:50:15;;;;;;;19.90;4.80;;;10.00;99.90;;;;;;7371237;19;20060;-66
2024/01/03 11:52:48;;;;;;;26.73;4.15;;;10.00;99.90;;;;;;7371471;19;20022;-75
2024/01/03 11:55:16;;;;;;;25.50;4.57;;;10.10;99.90;;;;;;7374006;19;20022;-75
2024/01/03 11:57:44;;;;;;;17.30;4.00;;;10.10;99.90;;;;;;7371842;19;20019;-75
2024/01/03 12:00:13;;;;;;;20.40;3.95;;;10.10;99.90;;;;;;7367562;19;20048;-75
2024/01/03 12:02:58;;;;;;;25.50;4.50;;;10.10;99.90;;;;;;7374712;19;20018;-75
2024/01/03 12:05:27;;;;;;;19.45;4.05;;;10.10;99.90;;;;;;7372361;19;20022;-66
2024/01/03 12:07:56;;;;;;;17.13;3.28;;;10.10;99.90;;;;;;7370707;19;20044;-67
2024/01/03 12:10:28;;;;;;;14.32;3.88;;;10.20;99.90;;;;;;7370706;19;20499;-67
2024/01/03 12:12:54;;;;;;;18.50;3.53;;;10.40;99.90;;;;;;7370618;19;20018;-67
2024/01/03 12:15:24;;;;;;;17.88;4.25;;;10.50;99.90;;;;;;7373423;19;20010;-65
2024/01/03 12:17:51;;;;;;;16.00;3.42;;;10.50;99.90;;;;;;7376092;19;20114;-67
2024/01/03 12:20:19;;;;;;;18.90;3.03;;;10.40;99.90;;;;;;7377544;19;20015;-67
2024/01/03 12:22:45;;;;;;;20.05;3.75;;;10.40;99.90;;;;;;7378463;19;20026;-67
2024/01/03 12:25:24;;;;;;;22.95;4.10;;;10.30;99.90;;;;;;7376566;19;20019;-66
2024/01/03 12:27:59;;;;;;;22.40;4.10;;;10.20;99.90;;;;;;7377592;19;20616;-67
2024/01/03 12:30:26;;;;;;;18.15;3.15;;;10.10;99.90;;;;;;7376870;19;20015;-67
2024/01/03 12:33:11;;;;;;;22.05;4.45;;;10.10;99.90;;;;;;7377267;19;20101;-67
2024/01/03 12:36:01;;;;;;;22.00;4.90;;;10.10;99.90;;;;;;7372416;19;20506;-76
2024/01/03 12:38:28;;;;;;;11.38;3.03;;;10.10;99.90;;;;;;7371099;19;20777;-76
2024/01/03 12:40:54;;;;;;;18.20;3.72;;;10.10;99.90;;;;;;7375310;19;20018;-76
2024/01/03 12:43:20;;;;;;;18.63;4.20;;;10.10;99.90;;;;;;7379819;19;20022;-77
2024/01/03 12:45:46;;;;;;;18.67;2.92;;;10.10;99.90;;;;;;7377232;19;20026;-76
2024/01/03 12:48:12;;;;;;;17.38;3.15;;;10.10;99.90;;;;;;7375067;19;20034;-73
2024/01/03 12:50:41;;;;;;;11.70;3.15;;;10.10;99.90;;;;;;7376575;19;20010;-75
2024/01/03 12:53:08;;;;;;;12.60;3.08;;;10.00;99.90;;;;;;7376122;19;20034;-75
2024/01/03 12:55:34;;;;;;;18.90;4.15;;;10.00;99.90;;;;;;7376390;19;20014;-74